Time;durP1;ratioP1;P1;durP2;ratioP2;P2;SDS_P1;SDS_P2;PMS_P1;PMS_P2;Temp;Humidity;BMP_temperature;BMP_pressure;BME280_temperature;BME280_humidity;BME280_pressure;Samples;Min_cycle;Max_cycle;Signal;HPM_P1;HPM_P2
2022/07/27 04:02:32;;;;;;;;;;;;;;;19.07;56.55;98921.09;2589701;46;20383;-67
2022/07/27 04:05:02;;;;;;;;;;;;;;;19.03;56.81;98918.09;2619638;54;20034;-67
2022/07/27 04:07:31;;;;;;;;;;;;;;;18.99;57.28;98919.63;2618483;47;19954;-68
2022/07/27 04:10:01;;;;;;;;;;;;;;;19.06;57.23;98916.75;2618454;54;19947;-67
2022/07/27 04:12:31;;;;;;;;;;;;;;;19.11;56.73;98914.19;2618836;54;19947;-68
2022/07/27 04:15:03;;;;;;;;;;;;;;;19.13;56.56;98904.00;2619565;54;19946;-68
2022/07/27 04:17:35;;;;;;;;;;;;;;;19.00;57.22;98907.84;2618883;47;19943;-67
2022/07/27 04:20:25;;;;;;;;;;;;;;;18.86;57.33;98909.25;2618727;54;20456;-67
2022/07/27 04:22:55;;;;;;;;;;;;;;;18.73;57.66;98906.88;2618997;54;19939;-67
2022/07/27 04:25:24;;;;;;;;;;;;;;;18.69;57.98;98908.38;2618978;39;20364;-67
2022/07/27 04:27:55;;;;;;;;;;;;;;;18.80;58.08;98905.66;2619036;54;19946;-67
2022/07/27 04:30:25;;;;;;;;;;;;;;;18.90;57.60;98907.72;2619852;39;20336;-67
2022/07/27 04:32:57;;;;;;;;;;;;;;;18.71;58.04;98919.69;2619011;54;19949;-67
2022/07/27 04:35:26;;;;;;;;;;;;;;;18.69;58.04;98905.69;2618354;54;19947;-68
2022/07/27 04:37:56;;;;;;;;;;;;;;;18.70;57.96;98913.53;2619076;54;19939;-67
2022/07/27 04:40:31;;;;;;;;;;;;;;;18.76;58.01;98914.41;2618851;54;19985;-67
2022/07/27 04:43:00;;;;;;;;;;;;;;;18.92;57.75;98907.44;2618878;54;19950;-67
2022/07/27 04:45:30;;;;;;;;;;;;;;;18.90;57.57;98917.56;2619138;54;19939;-67
2022/07/27 04:48:06;;;;;;;;;;;;;;;18.65;58.43;98923.31;2619054;54;19954;-67
2022/07/27 04:50:40;;;;;;;;;;;;;;;18.73;58.21;98912.22;2619031;54;19995;-66
2022/07/27 04:53:09;;;;;;;;;;;;;;;18.74;58.30;98921.91;2619131;54;19947;-66
2022/07/27 04:55:39;;;;;;;;;;;;;;;18.55;58.58;98913.25;2619835;54;19946;-67
2022/07/27 04:58:08;;;;;;;;;;;;;;;18.61;59.24;98914.94;2619415;54;19945;-67
2022/07/27 05:00:38;;;;;;;;;;;;;;;18.68;58.87;98926.31;2619005;54;19938;-66
2022/07/27 05:03:10;;;;;;;;;;;;;;;18.80;58.58;98924.41;2618325;54;19953;-67
2022/07/27 05:05:39;;;;;;;;;;;;;;;18.75;58.62;98932.34;2618747;54;19949;-66
2022/07/27 05:08:18;;;;;;;;;;;;;;;18.77;58.42;98935.59;2618496;54;19947;-67
2022/07/27 05:10:47;;;;;;;;;;;;;;;18.78;58.57;98939.09;2619412;39;20348;-67
2022/07/27 05:13:17;;;;;;;;;;;;;;;18.86;58.04;98938.72;2623113;54;19938;-67
2022/07/27 05:15:46;;;;;;;;;;;;;;;18.65;58.65;98932.13;2619868;54;19938;-67
2022/07/27 05:18:26;;;;;;;;;;;;;;;18.61;58.53;98941.72;2619094;39;20360;-67
2022/07/27 05:20:56;;;;;;;;;;;;;;;18.70;58.22;98948.34;2619403;39;20357;-68
2022/07/27 05:23:25;;;;;;;;;;;;;;;18.43;59.16;98950.78;2618157;51;19966;-68
2022/07/27 05:25:55;;;;;;;;;;;;;;;18.26;59.81;98952.59;2617873;54;19949;-67
2022/07/27 05:28:24;;;;;;;;;;;;;;;18.39;59.62;98956.84;2618763;54;19965;-66
2022/07/27 05:30:53;;;;;;;;;;;;;;;18.26;59.68;98956.09;2619569;39;20341;-68
2022/07/27 05:33:24;;;;;;;;;;;;;;;18.41;59.91;98954.72;2618669;54;19938;-66
2022/07/27 05:35:56;;;;;;;;;;;;;;;18.44;59.46;98948.91;2618675;54;19939;-66
2022/07/27 05:38:25;;;;;;;;;;;;;;;18.61;59.37;98955.09;2619042;54;19942;-65
2022/07/27 05:40:55;;;;;;;;;;;;;;;18.68;59.12;98961.13;2617486;54;20026;-67
2022/07/27 05:43:24;;;;;;;;;;;;;;;18.71;58.75;98967.91;2618160;54;19946;-67
2022/07/27 05:45:55;;;;;;;;;;;;;;;18.50;59.25;98970.19;2618360;54;19948;-66
2022/07/27 05:48:25;;;;;;;;;;;;;;;18.53;59.49;98975.06;2618137;54;19945;-66
2022/07/27 05:50:57;;;;;;;;;;;;;;;18.32;59.99;98979.19;2618276;54;19946;-67
2022/07/27 05:53:26;;;;;;;;;;;;;;;18.41;59.52;98978.81;2617770;47;20452;-67
2022/07/27 05:55:56;;;;;;;;;;;;;;;18.53;59.35;98980.41;2618181;47;19939;-66
2022/07/27 05:58:28;;;;;;;;;;;;;;;18.54;59.33;98983.91;2618968;54;19962;-66
2022/07/27 06:00:58;;;;;;;;;;;;;;;18.49;59.69;98987.31;2619014;54;19946;-66
2022/07/27 06:03:27;;;;;;;;;;;;;;;18.64;59.05;98978.72;2619738;39;20414;-66
2022/07/27 06:08:41;;;;;;;;;;;;;;;18.77;58.75;98983.00;2618844;46;19947;-65
2022/07/27 06:11:11;;;;;;;;;;;;;;;18.82;58.33;98985.78;2619497;39;20331;-67
2022/07/27 06:13:40;;;;;;;;;;;;;;;19.00;58.56;98982.03;2620682;54;19938;-66
2022/07/27 06:16:11;;;;;;;;;;;;;;;19.11;58.06;98988.41;2619712;54;19939;-66
2022/07/27 06:18:40;;;;;;;;;;;;;;;19.12;57.83;98990.00;2619321;54;19966;-66
2022/07/27 06:21:12;;;;;;;;;;;;;;;19.32;57.87;98989.53;2619022;54;19954;-65
2022/07/27 06:23:42;;;;;;;;;;;;;;;19.36;57.44;98996.81;2619290;54;20034;-68
2022/07/27 06:26:11;;;;;;;;;;;;;;;19.43;57.04;99000.16;2619138;47;19947;-68
2022/07/27 06:28:41;;;;;;;;;;;;;;;19.51;57.12;99005.09;2619680;54;19939;-67
2022/07/27 06:31:12;;;;;;;;;;;;;;;19.58;56.85;99002.22;2619937;39;20320;-69
2022/07/27 06:33:42;;;;;;;;;;;;;;;19.50;56.98;99008.81;2622578;54;19946;-68
2022/07/27 06:36:19;;;;;;;;;;;;;;;19.70;56.53;99010.22;2623028;54;19946;-67
2022/07/27 06:38:48;;;;;;;;;;;;;;;19.60;56.27;99005.50;2622823;54;19953;-68
2022/07/27 06:41:18;;;;;;;;;;;;;;;19.63;55.91;99001.53;2622786;54;19947;-69
2022/07/27 06:43:48;;;;;;;;;;;;;;;19.74;56.32;99004.09;2622207;54;19946;-66
2022/07/27 06:46:17;;;;;;;;;;;;;;;20.11;55.54;99008.06;2619660;54;19938;-67
2022/07/27 06:48:47;;;;;;;;;;;;;;;19.95;55.49;98999.81;2620657;54;19953;-68
2022/07/27 06:51:19;;;;;;;;;;;;;;;20.06;55.39;98998.09;2621398;54;19946;-66
2022/07/27 06:53:51;;;;;;;;;;;;;;;20.08;55.21;98997.81;2621785;54;19946;-68
2022/07/27 06:56:21;;;;;;;;;;;;;;;20.11;54.52;98995.47;2621944;54;20022;-68
2022/07/27 06:58:51;;;;;;;;;;;;;;;20.12;54.37;98991.72;2622588;47;19943;-68
2022/07/27 07:01:21;;;;;;;;;;;;;;;20.29;54.53;99000.53;2620209;54;19954;-67
2022/07/27 07:03:50;;;;;;;;;;;;;;;20.54;54.26;98993.84;2619709;54;19951;-70
2022/07/27 07:06:22;;;;;;;;;;;;;;;20.31;54.42;99000.25;2618673;54;19943;-69
2022/07/27 07:08:52;;;;;;;;;;;;;;;20.44;54.34;98994.50;2619386;54;19946;-67
2022/07/27 07:11:21;;;;;;;;;;;;;;;20.75;53.66;98998.34;2618937;54;19950;-67
2022/07/27 07:13:50;;;;;;;;;;;;;;;20.71;53.62;98997.22;2619544;54;19954;-68
2022/07/27 07:16:20;;;;;;;;;;;;;;;20.83;52.93;99007.03;2619330;54;19969;-67
2022/07/27 07:18:49;;;;;;;;;;;;;;;21.00;53.05;98997.75;2619501;39;20330;-68
2022/07/27 07:21:23;;;;;;;;;;;;;;;21.03;52.84;98999.13;2619456;54;19938;-68
2022/07/27 07:23:53;;;;;;;;;;;;;;;20.89;52.45;99004.09;2619241;54;19939;-68
2022/07/27 07:26:22;;;;;;;;;;;;;;;20.87;52.44;99011.63;2618947;54;19970;-68
2022/07/27 07:28:51;;;;;;;;;;;;;;;21.03;52.46;99005.31;2618981;54;19947;-68
2022/07/27 07:31:21;;;;;;;;;;;;;;;20.82;52.37;99011.59;2618951;39;20346;-68
2022/07/27 07:33:50;;;;;;;;;;;;;;;20.79;53.35;99001.34;2620030;54;19934;-67
2022/07/27 07:36:23;;;;;;;;;;;;;;;21.09;52.90;98999.97;2618348;47;19950;-68
2022/07/27 07:38:54;;;;;;;;;;;;;;;21.06;52.11;98998.59;2619295;54;19938;-69
2022/07/27 07:41:24;;;;;;;;;;;;;;;21.11;51.76;99001.34;2619513;54;19958;-67
2022/07/27 07:43:53;;;;;;;;;;;;;;;20.90;52.11;99002.22;2618938;47;19946;-68
2022/07/27 07:46:23;;;;;;;;;;;;;;;20.60;52.37;99003.56;2619441;54;19938;-68
2022/07/27 07:48:52;;;;;;;;;;;;;;;20.66;52.92;98996.38;2619361;47;20434;-68
2022/07/27 07:51:25;;;;;;;;;;;;;;;20.49;52.97;98996.44;2620061;54;19989;-67
2022/07/27 07:53:54;;;;;;;;;;;;;;;20.49;53.02;98994.59;2620936;54;19947;-68
2022/07/27 07:56:23;;;;;;;;;;;;;;;20.55;53.02;98995.47;2620363;54;19938;-68
2022/07/27 07:58:53;;;;;;;;;;;;;;;20.60;52.69;98997.38;2622181;39;20337;-69
2022/07/27 08:01:22;;;;;;;;;;;;;;;20.66;52.64;98999.88;2621440;54;19946;-68
2022/07/27 08:03:54;;;;;;;;;;;;;;;20.58;52.56;99008.38;2620650;54;19954;-66
2022/07/27 08:06:26;;;;;;;;;;;;;;;20.46;52.83;99000.44;2621290;54;20541;-67
2022/07/27 08:08:56;;;;;;;;;;;;;;;20.49;52.46;98997.28;2621749;54;19943;-69
2022/07/27 08:11:25;;;;;;;;;;;;;;;20.68;52.74;99011.16;2621626;39;20561;-68
2022/07/27 08:13:55;;;;;;;;;;;;;;;20.84;51.36;99014.00;2623357;54;19992;-67
2022/07/27 08:16:24;;;;;;;;;;;;;;;20.76;50.70;99013.41;2622294;54;19953;-67
2022/07/27 08:18:54;;;;;;;;;;;;;;;20.56;50.94;99012.38;2620853;54;20030;-68
2022/07/27 08:21:27;;;;;;;;;;;;;;;20.66;51.01;99012.50;2621716;54;19950;-68
2022/07/27 08:23:59;;;;;;;;;;;;;;;20.59;50.73;99010.00;2621101;54;20033;-68
2022/07/27 08:26:31;;;;;;;;;;;;;;;20.45;50.91;99008.72;2621924;39;20319;-67
2022/07/27 08:29:00;;;;;;;;;;;;;;;20.80;49.96;99012.91;2620755;47;20415;-67
2022/07/27 08:31:41;;;;;;;;;;;;;;;20.74;50.14;99009.34;2621823;54;19954;-68
2022/07/27 08:34:21;;;;;;;;;;;;;;;20.97;50.34;99008.22;2621750;54;19949;-67
2022/07/27 08:36:53;;;;;;;;;;;;;;;21.14;49.52;99013.47;2620927;54;19939;-68
2022/07/27 08:39:22;;;;;;;;;;;;;;;21.25;49.72;99013.28;2620580;54;19950;-68
2022/07/27 08:42:12;;;;;;;;;;;;;;;21.20;48.67;99012.44;2620379;54;19939;-67
2022/07/27 08:44:42;;;;;;;;;;;;;;;21.19;49.16;99016.22;2620489;54;19958;-67
2022/07/27 08:47:12;;;;;;;;;;;;;;;21.34;48.32;99010.97;2619970;54;19946;-66
2022/07/27 08:49:42;;;;;;;;;;;;;;;21.24;49.01;99014.38;2619800;54;19955;-67
2022/07/27 08:52:15;;;;;;;;;;;;;;;21.38;48.49;99017.44;2620793;54;19945;-68
2022/07/27 08:54:44;;;;;;;;;;;;;;;21.32;49.04;99012.28;2620425;51;20045;-68
2022/07/27 08:57:14;;;;;;;;;;;;;;;21.39;48.38;99019.09;2619288;54;19953;-67
2022/07/27 08:59:44;;;;;;;;;;;;;;;21.43;47.72;99016.66;2621026;39;20129;-69
2022/07/27 09:02:15;;;;;;;;;;;;;;;21.44;48.03;99015.63;2620267;54;19946;-67
2022/07/27 09:04:45;;;;;;;;;;;;;;;21.43;47.88;99008.59;2620626;47;20403;-67
2022/07/27 09:07:28;;;;;;;;;;;;;;;21.48;47.84;99012.16;2619783;54;19947;-68
2022/07/27 09:09:59;;;;;;;;;;;;;;;21.64;47.92;99015.75;2618955;51;20058;-67
2022/07/27 09:12:29;;;;;;;;;;;;;;;21.79;46.93;99019.59;2619647;54;19947;-67
2022/07/27 09:15:04;;;;;;;;;;;;;;;21.84;47.36;99015.06;2618788;47;19951;-68
2022/07/27 09:17:34;;;;;;;;;;;;;;;22.02;46.92;99011.13;2619161;47;19951;-68
2022/07/27 09:20:20;;;;;;;;;;;;;;;21.93;47.32;99015.38;2622326;54;19958;-67
2022/07/27 09:22:53;;;;;;;;;;;;;;;22.06;46.29;99017.59;2621714;54;19939;-67
2022/07/27 09:25:29;;;;;;;;;;;;;;;21.95;46.49;99005.97;2621131;54;19999;-69
2022/07/27 09:28:30;;;;;;;;;;;;;;;22.04;46.30;99014.34;2619181;54;19958;-68
2022/07/27 09:31:06;;;;;;;;;;;;;;;22.09;46.16;99016.28;2619437;54;19946;-67
2022/07/27 09:33:42;;;;;;;;;;;;;;;22.14;45.80;99019.81;2620843;54;19947;-69
2022/07/27 09:36:11;;;;;;;;;;;;;;;22.11;45.66;99017.59;2621317;54;19946;-68
2022/07/27 09:38:51;;;;;;;;;;;;;;;22.08;44.98;99018.13;2620302;54;20460;-66
2022/07/27 09:41:27;;;;;;;;;;;;;;;22.21;45.62;99017.69;2621845;54;19990;-66
2022/07/27 09:43:57;;;;;;;;;;;;;;;22.30;45.38;99022.56;2622380;54;20426;-67
2022/07/27 09:46:48;;;;;;;;;;;;;;;22.37;44.85;99018.56;2621440;54;19943;-66
2022/07/27 09:49:28;;;;;;;;;;;;;;;22.38;44.99;99022.06;2622259;31;20422;-68
2022/07/27 09:51:58;;;;;;;;;;;;;;;22.52;44.05;99016.97;2620903;54;19939;-67
2022/07/27 09:54:42;;;;;;;;;;;;;;;22.44;43.83;99021.81;2622034;54;19993;-67
2022/07/27 09:57:12;;;;;;;;;;;;;;;22.44;44.38;99021.00;2620061;54;19954;-67
2022/07/27 09:59:41;;;;;;;;;;;;;;;22.50;44.75;99025.34;2619813;54;19947;-67
2022/07/27 10:02:13;;;;;;;;;;;;;;;22.87;44.07;99014.38;2619618;54;19945;-68
2022/07/27 10:04:43;;;;;;;;;;;;;;;23.28;44.42;99017.09;2619327;54;20450;-68
2022/07/27 10:07:13;;;;;;;;;;;;;;;23.35;42.71;99014.94;2619572;54;19946;-68
2022/07/27 10:09:45;;;;;;;;;;;;;;;23.08;42.79;99019.81;2619535;54;19939;-68
2022/07/27 10:12:15;;;;;;;;;;;;;;;23.11;42.95;99020.06;2619754;54;19989;-68
2022/07/27 10:14:46;;;;;;;;;;;;;;;22.97;42.91;99021.66;2619266;54;19947;-68
2022/07/27 10:17:16;;;;;;;;;;;;;;;23.11;42.97;99016.56;2618392;54;19993;-67
2022/07/27 10:19:48;;;;;;;;;;;;;;;23.29;42.94;99018.72;2620248;47;19942;-67
2022/07/27 10:22:18;;;;;;;;;;;;;;;23.41;42.54;99018.44;2621295;39;20341;-67
2022/07/27 10:24:59;;;;;;;;;;;;;;;23.67;42.29;99017.34;2620219;54;19939;-67
2022/07/27 10:27:29;;;;;;;;;;;;;;;23.92;41.10;99007.56;2619906;54;19947;-68
2022/07/27 10:29:59;;;;;;;;;;;;;;;24.07;41.08;99015.63;2619919;54;19946;-67
2022/07/27 10:32:29;;;;;;;;;;;;;;;23.67;39.84;99019.22;2619828;54;20430;-67
2022/07/27 10:35:00;;;;;;;;;;;;;;;23.29;40.55;99017.91;2620017;54;19942;-67
2022/07/27 10:37:30;;;;;;;;;;;;;;;23.06;41.48;99011.97;2620180;54;19947;-67
2022/07/27 10:42:45;;;;;;;;;;;;;;;23.87;41.10;99007.59;2619836;54;19965;-67
2022/07/27 10:45:22;;;;;;;;;;;;;;;24.18;39.98;99009.09;2619542;31;20418;-67
2022/07/27 10:47:52;;;;;;;;;;;;;;;24.40;39.17;99008.75;2619277;54;19953;-68
2022/07/27 10:50:23;;;;;;;;;;;;;;;24.43;38.81;99004.69;2619280;54;19939;-67
2022/07/27 10:52:54;;;;;;;;;;;;;;;24.29;38.38;99007.16;2619450;54;19954;-67
2022/07/27 10:55:38;;;;;;;;;;;;;;;23.32;40.01;99010.09;2619604;54;19957;-68
2022/07/27 10:58:22;;;;;;;;;;;;;;;23.41;40.70;99004.97;2620415;39;20335;-67
2022/07/27 11:01:06;;;;;;;;;;;;;;;23.90;40.31;99007.03;2619102;54;19939;-67
2022/07/27 11:03:38;;;;;;;;;;;;;;;24.27;39.50;98995.81;2618520;47;19950;-67
2022/07/27 11:06:13;;;;;;;;;;;;;;;24.52;38.69;98994.09;2618315;47;19954;-67
2022/07/27 11:09:03;;;;;;;;;;;;;;;24.32;38.22;98997.69;2618029;54;20026;-67
2022/07/27 11:11:53;;;;;;;;;;;;;;;24.09;38.48;99002.66;2619132;54;19969;-67
2022/07/27 11:14:23;;;;;;;;;;;;;;;23.96;38.69;98997.81;2618963;54;19939;-68
2022/07/27 11:17:06;;;;;;;;;;;;;;;24.22;38.82;98991.25;2618124;54;19993;-68
2022/07/27 11:19:56;;;;;;;;;;;;;;;24.42;37.99;98994.97;2618222;47;20030;-66
2022/07/27 11:22:32;;;;;;;;;;;;;;;24.34;37.56;98992.81;2619272;54;20426;-67
2022/07/27 11:25:22;;;;;;;;;;;;;;;24.17;37.85;98993.19;2619086;54;19958;-67
2022/07/27 11:27:51;;;;;;;;;;;;;;;24.16;37.96;98989.66;2619126;54;19938;-67
2022/07/27 11:30:25;;;;;;;;;;;;;;;24.23;38.00;98983.97;2618853;54;19946;-67
2022/07/27 11:32:57;;;;;;;;;;;;;;;24.48;37.19;98982.25;2619156;54;19949;-67
2022/07/27 11:35:26;;;;;;;;;;;;;;;24.61;36.98;98981.59;2619386;54;19946;-68
2022/07/27 11:37:59;;;;;;;;;;;;;;;24.81;37.02;98983.38;2619341;54;19938;-68
2022/07/27 11:40:29;;;;;;;;;;;;;;;24.96;36.70;98983.25;2618435;47;19946;-68
2022/07/27 11:43:33;;;;;;;;;;;;;;;25.11;36.67;98974.25;2618988;54;19973;-68
2022/07/27 11:46:13;;;;;;;;;;;;;;;25.26;36.10;98982.22;2619032;54;19953;-68
2022/07/27 11:48:50;;;;;;;;;;;;;;;25.30;35.79;98975.16;2619292;54;19953;-67
2022/07/27 11:51:41;;;;;;;;;;;;;;;25.14;34.76;98969.06;2620190;54;19945;-68
2022/07/27 11:54:13;;;;;;;;;;;;;;;25.10;35.23;98965.31;2621875;51;20041;-67
2022/07/27 11:56:44;;;;;;;;;;;;;;;25.07;34.33;98959.66;2618803;54;19969;-67
2022/07/27 11:59:15;;;;;;;;;;;;;;;24.79;34.41;98963.94;2618601;54;19938;-67
2022/07/27 12:01:48;;;;;;;;;;;;;;;24.75;34.60;98962.88;2618972;54;19958;-68
2022/07/27 12:04:25;;;;;;;;;;;;;;;24.87;34.89;98957.94;2619035;39;20418;-67
2022/07/27 12:07:18;;;;;;;;;;;;;;;24.90;34.12;98960.03;2618458;54;19943;-67
2022/07/27 12:09:48;;;;;;;;;;;;;;;24.72;34.44;98961.53;2618504;54;19954;-68
2022/07/27 12:12:18;;;;;;;;;;;;;;;24.87;34.26;98957.94;2618193;47;19946;-68
2022/07/27 12:14:49;;;;;;;;;;;;;;;24.97;35.12;98960.53;2619854;39;20006;-68
2022/07/27 12:17:27;;;;;;;;;;;;;;;24.89;35.34;98961.94;2619187;54;19947;-68
2022/07/27 12:20:00;;;;;;;;;;;;;;;24.75;35.63;98960.97;2618711;54;19942;-68
2022/07/27 12:22:32;;;;;;;;;;;;;;;24.85;35.42;98965.50;2618907;54;19977;-69
2022/07/27 12:25:04;;;;;;;;;;;;;;;24.81;35.54;98959.84;2618758;54;20465;-68
2022/07/27 12:27:39;;;;;;;;;;;;;;;24.57;35.22;98957.03;2618704;54;19938;-68
2022/07/27 12:30:10;;;;;;;;;;;;;;;24.70;35.36;98958.31;2618348;54;19946;-68
2022/07/27 12:32:41;;;;;;;;;;;;;;;25.01;35.35;98953.47;2618184;47;20030;-67
2022/07/27 12:35:22;;;;;;;;;;;;;;;25.10;34.28;98951.78;2619185;39;20344;-68
2022/07/27 12:37:57;;;;;;;;;;;;;;;24.90;34.78;98954.63;2618508;54;19977;-68
2022/07/27 12:40:28;;;;;;;;;;;;;;;24.58;34.82;98955.16;2618528;54;19946;-68
2022/07/27 12:42:59;;;;;;;;;;;;;;;24.70;35.34;98934.00;2618774;54;19938;-68
2022/07/27 12:45:31;;;;;;;;;;;;;;;24.85;34.62;98941.97;2618104;54;19967;-68
2022/07/27 12:48:08;;;;;;;;;;;;;;;24.79;35.68;98935.00;2618727;54;19954;-68
2022/07/27 12:50:41;;;;;;;;;;;;;;;25.02;35.08;98928.03;2619476;39;20349;-68
2022/07/27 12:53:12;;;;;;;;;;;;;;;25.02;35.00;98925.31;2619533;39;20338;-67
2022/07/27 12:55:42;;;;;;;;;;;;;;;24.99;34.97;98920.50;2619431;54;19997;-66
2022/07/27 16:18:30;;;;;;;;;;;;;;;24.87;29.98;98838.97;2619211;46;20234;-67
2022/07/27 16:21:06;;;;;;;;;;;;;;;24.89;30.60;98831.34;2618373;54;19942;-68
2022/07/27 16:23:36;;;;;;;;;;;;;;;25.09;30.14;98836.59;2618809;54;19943;-67
2022/07/27 16:26:06;;;;;;;;;;;;;;;25.20;29.82;98829.97;2618984;54;19945;-66
2022/07/27 16:28:38;;;;;;;;;;;;;;;25.05;30.22;98832.81;2618640;54;19981;-68
2022/07/27 16:31:09;;;;;;;;;;;;;;;25.03;30.05;98828.81;2619675;54;20526;-67
2022/07/27 16:33:42;;;;;;;;;;;;;;;24.97;29.95;98836.13;2618352;54;19993;-65
2022/07/27 16:36:13;;;;;;;;;;;;;;;24.88;30.15;98833.25;2620463;39;20356;-66
2022/07/27 16:38:43;;;;;;;;;;;;;;;24.79;29.90;98826.06;2618852;54;19985;-66
2022/07/27 16:41:19;;;;;;;;;;;;;;;24.85;30.16;98824.91;2619674;54;19980;-65
2022/07/27 16:43:49;;;;;;;;;;;;;;;25.26;29.40;98828.00;2619480;54;19938;-68
2022/07/27 16:46:18;;;;;;;;;;;;;;;25.54;29.09;98828.22;2619297;54;19946;-66
2022/07/27 16:48:51;;;;;;;;;;;;;;;25.86;28.91;98822.16;2619231;54;20433;-68
2022/07/27 16:51:20;;;;;;;;;;;;;;;26.17;28.32;98819.81;2618596;54;20418;-68
2022/07/27 16:53:50;;;;;;;;;;;;;;;26.41;28.11;98806.97;2619687;46;19966;-68
2022/07/27 16:56:19;;;;;;;;;;;;;;;26.58;27.82;98806.44;2619985;54;20034;-67
2022/07/27 16:58:49;;;;;;;;;;;;;;;26.79;27.92;98804.16;2620275;54;19946;-65
2022/07/27 17:01:18;;;;;;;;;;;;;;;26.87;27.18;98808.88;2619040;54;19973;-67
2022/07/27 17:03:58;;;;;;;;;;;;;;;26.76;27.08;98801.22;2619201;54;19942;-68
2022/07/27 17:06:28;;;;;;;;;;;;;;;26.71;27.45;98799.41;2620235;39;20357;-68
2022/07/27 17:08:57;;;;;;;;;;;;;;;26.63;27.17;98800.09;2623622;39;20326;-68
2022/07/27 17:11:27;;;;;;;;;;;;;;;26.46;27.36;98799.88;2621329;54;19939;-68
2022/07/27 17:13:56;;;;;;;;;;;;;;;26.49;27.28;98801.97;2618414;47;19953;-68
2022/07/27 17:16:27;;;;;;;;;;;;;;;26.54;27.36;98802.69;2619120;54;19943;-67
2022/07/27 17:19:02;;;;;;;;;;;;;;;26.48;26.64;98805.78;2618917;54;19938;-66
2022/07/27 17:21:31;;;;;;;;;;;;;;;26.56;27.09;98797.78;2619160;54;19939;-68
2022/07/27 17:24:00;;;;;;;;;;;;;;;26.71;27.04;98801.34;2619109;54;19977;-68
2022/07/27 17:26:30;;;;;;;;;;;;;;;26.88;26.98;98805.06;2618522;47;20030;-68
2022/07/27 17:28:59;;;;;;;;;;;;;;;26.92;26.60;98802.56;2620206;54;20414;-66
2022/07/27 17:31:29;;;;;;;;;;;;;;;26.95;26.39;98806.59;2619544;54;19950;-66
2022/07/27 17:34:01;;;;;;;;;;;;;;;27.13;26.55;98809.22;2618223;54;20025;-68
2022/07/27 17:36:31;;;;;;;;;;;;;;;27.15;26.17;98798.09;2619296;54;19946;-66
2022/07/27 17:39:01;;;;;;;;;;;;;;;27.28;26.11;98796.47;2618659;47;19950;-66
2022/07/27 17:41:31;;;;;;;;;;;;;;;27.37;25.53;98806.31;2620146;39;20229;-66
2022/07/27 17:44:00;;;;;;;;;;;;;;;27.57;25.77;98804.28;2619535;54;19938;-65
2022/07/27 17:46:32;;;;;;;;;;;;;;;27.55;25.31;98806.47;2619118;47;20418;-65
2022/07/27 17:49:09;;;;;;;;;;;;;;;27.51;25.97;98806.28;2619223;54;19954;-67
2022/07/27 17:51:40;;;;;;;;;;;;;;;27.56;25.84;98806.19;2619144;54;19947;-66
2022/07/27 17:54:09;;;;;;;;;;;;;;;27.36;25.91;98812.06;2620373;54;19954;-67
2022/07/27 17:56:38;;;;;;;;;;;;;;;27.01;25.97;98814.31;2620841;47;19945;-67
2022/07/27 17:59:13;;;;;;;;;;;;;;;26.67;26.39;98812.75;2621051;47;20453;-67
2022/07/27 18:02:04;;;;;;;;;;;;;;;26.49;26.93;98818.22;2622643;39;20333;-66
2022/07/27 18:04:36;;;;;;;;;;;;;;;26.17;27.04;98830.66;2621831;39;20337;-68
2022/07/27 18:07:07;;;;;;;;;;;;;;;25.93;27.29;98825.31;2622743;54;19954;-67
2022/07/27 18:09:37;;;;;;;;;;;;;;;25.53;27.38;98832.84;2621328;54;19939;-68
2022/07/27 18:12:07;;;;;;;;;;;;;;;25.02;28.71;98833.38;2620673;54;19938;-68
2022/07/27 18:15:45;;;;;;;;;;;;;;;24.68;29.04;98831.56;2620655;54;19942;-68
2022/07/27 18:17:26;;;;;;;;;;;;;;;24.36;29.44;98833.94;2620527;54;19957;-68
2022/07/27 18:19:58;;;;;;;;;;;;;;;24.08;29.81;98832.81;2619928;54;19951;-69
2022/07/27 18:22:28;;;;;;;;;;;;;;;23.88;30.01;98833.72;2620164;54;19973;-69
2022/07/27 18:24:57;;;;;;;;;;;;;;;23.70;30.38;98837.88;2620086;54;20421;-67
2022/07/27 18:27:29;;;;;;;;;;;;;;;23.59;31.10;98838.97;2620204;46;20489;-67
2022/07/27 18:29:59;;;;;;;;;;;;;;;23.45;30.87;98836.88;2620637;47;19950;-68
2022/07/27 18:32:28;;;;;;;;;;;;;;;23.35;31.59;98841.50;2620987;54;20001;-68
2022/07/27 18:35:00;;;;;;;;;;;;;;;23.27;31.69;98832.09;2620283;54;19942;-69
2022/07/27 18:37:30;;;;;;;;;;;;;;;23.14;31.97;98833.47;2620710;54;19942;-69
2022/07/27 18:39:59;;;;;;;;;;;;;;;23.10;31.94;98836.97;2620242;54;19938;-67
2022/07/27 18:42:28;;;;;;;;;;;;;;;22.99;32.08;98847.00;2621133;54;19947;-67
2022/07/27 18:44:58;;;;;;;;;;;;;;;22.89;32.53;98844.28;2620376;54;19945;-67
2022/07/27 18:47:27;;;;;;;;;;;;;;;22.74;32.38;98854.00;2619414;39;20333;-66
2022/07/27 18:49:57;;;;;;;;;;;;;;;22.67;32.78;98852.66;2619850;54;20013;-66
2022/07/27 18:52:29;;;;;;;;;;;;;;;22.63;32.63;98854.28;2620425;54;19946;-67
2022/07/27 18:54:59;;;;;;;;;;;;;;;22.44;33.40;98859.38;2620475;39;20357;-67
2022/07/27 18:57:28;;;;;;;;;;;;;;;22.34;33.31;98854.81;2618713;54;20446;-69
2022/07/27 18:59:58;;;;;;;;;;;;;;;22.33;33.22;98858.59;2619256;39;20349;-66
2022/07/27 19:02:29;;;;;;;;;;;;;;;22.28;33.54;98860.44;2619165;54;19947;-66
2022/07/27 19:05:01;;;;;;;;;;;;;;;22.16;33.56;98861.50;2618741;54;19947;-67
2022/07/27 19:07:36;;;;;;;;;;;;;;;22.09;34.03;98865.53;2619257;47;19947;-67
2022/07/27 19:10:09;;;;;;;;;;;;;;;22.11;33.75;98876.81;2619310;47;19938;-69
2022/07/27 19:12:39;;;;;;;;;;;;;;;21.93;34.45;98870.84;2619526;54;19939;-68
2022/07/27 19:15:11;;;;;;;;;;;;;;;21.85;33.96;98884.03;2619533;54;19946;-68
2022/07/27 19:17:41;;;;;;;;;;;;;;;21.79;34.31;98883.16;2618997;54;19943;-66
2022/07/27 19:20:12;;;;;;;;;;;;;;;21.61;34.34;98883.66;2618845;54;19945;-67
2022/07/27 19:22:46;;;;;;;;;;;;;;;21.53;34.83;98884.97;2619236;54;19938;-68
2022/07/27 19:25:16;;;;;;;;;;;;;;;21.57;34.35;98888.75;2619359;54;19957;-68
2022/07/27 19:27:45;;;;;;;;;;;;;;;21.44;34.83;98890.03;2619003;54;19946;-68
2022/07/27 19:30:15;;;;;;;;;;;;;;;21.43;34.50;98885.72;2618830;54;19938;-67
2022/07/27 19:32:46;;;;;;;;;;;;;;;21.36;34.76;98882.47;2619078;54;19957;-67
2022/07/27 19:35:16;;;;;;;;;;;;;;;21.30;35.11;98888.03;2618792;54;19964;-67
2022/07/27 19:37:48;;;;;;;;;;;;;;;21.23;35.15;98888.28;2618943;54;19938;-68
2022/07/27 19:40:17;;;;;;;;;;;;;;;21.18;35.14;98889.03;2619082;54;19939;-67
2022/07/27 19:43:07;;;;;;;;;;;;;;;21.18;35.03;98894.41;2618732;47;19942;-68
2022/07/27 19:45:37;;;;;;;;;;;;;;;21.14;35.36;98898.69;2618682;54;19950;-68
2022/07/27 19:48:07;;;;;;;;;;;;;;;21.10;35.05;98902.94;2620690;39;20319;-68
2022/07/27 19:50:36;;;;;;;;;;;;;;;21.05;35.03;98908.31;2619762;39;20343;-68
2022/07/27 19:53:08;;;;;;;;;;;;;;;21.00;35.42;98910.97;2620103;54;19939;-68
2022/07/27 19:55:38;;;;;;;;;;;;;;;20.95;35.46;98905.56;2619261;47;19939;-67
2022/07/27 19:58:07;;;;;;;;;;;;;;;20.91;35.73;98907.94;2621518;54;19938;-69
2022/07/27 20:00:37;;;;;;;;;;;;;;;20.90;35.76;98908.19;2619701;54;19958;-68
2022/07/27 20:03:06;;;;;;;;;;;;;;;20.85;35.39;98911.66;2620345;54;19949;-67
2022/07/27 20:05:36;;;;;;;;;;;;;;;20.81;35.87;98915.09;2619844;54;19938;-69
2022/07/27 20:08:05;;;;;;;;;;;;;;;20.81;35.52;98918.59;2619156;54;19969;-66
2022/07/27 20:10:37;;;;;;;;;;;;;;;20.77;35.77;98925.56;2619921;39;20361;-68
2022/07/27 20:13:07;;;;;;;;;;;;;;;20.71;35.66;98921.22;2619251;54;19947;-67
2022/07/27 20:15:36;;;;;;;;;;;;;;;20.70;35.81;98927.66;2618155;54;19950;-68
2022/07/27 20:18:06;;;;;;;;;;;;;;;20.68;35.76;98927.09;2619323;54;19939;-68
2022/07/27 20:20:35;;;;;;;;;;;;;;;20.58;36.27;98925.13;2618670;39;20334;-67
2022/07/27 20:23:06;;;;;;;;;;;;;;;20.54;35.98;98918.66;2619648;54;19946;-66
2022/07/27 20:25:41;;;;;;;;;;;;;;;20.53;36.02;98925.91;2621188;54;19990;-67
2022/07/27 20:28:11;;;;;;;;;;;;;;;20.48;35.93;98927.69;2619972;47;19942;-68
2022/07/27 20:30:41;;;;;;;;;;;;;;;20.47;36.29;98926.06;2620062;47;19947;-67
2022/07/27 20:33:13;;;;;;;;;;;;;;;20.47;36.57;98926.88;2620232;47;19942;-66
2022/07/27 20:35:43;;;;;;;;;;;;;;;20.50;36.44;98922.91;2618335;54;19942;-68
2022/07/27 20:38:13;;;;;;;;;;;;;;;20.48;36.41;98931.19;2618450;51;19939;-67
2022/07/27 20:40:48;;;;;;;;;;;;;;;20.42;36.70;98932.19;2618849;54;20533;-67